Time;durP1;ratioP1;P1;durP2;ratioP2;P2;SDS_P1;SDS_P2;PMS_P1;PMS_P2;Temp;Humidity;BMP_temperature;BMP_pressure;BME280_temperature;BME280_humidity;BME280_pressure;Samples;Min_cycle;Max_cycle;Signal;HPM_P1;HPM_P2
2022/06/20 00:02:22;;;;;;;9.73;7.50;;;;;;;11.49;99.14;101237.53;5032917;28;20456;-46
2022/06/20 00:04:51;;;;;;;11.40;7.90;;;;;;;11.48;99.11;101241.19;5029981;28;20433;-46
2022/06/20 00:07:19;;;;;;;10.00;7.13;;;;;;;11.48;99.14;101236.69;5013204;28;20436;-46
2022/06/20 00:09:49;;;;;;;7.67;6.90;;;;;;;11.48;98.92;101231.34;5013808;28;20429;-45
2022/06/20 00:12:19;;;;;;;6.90;6.30;;;;;;;11.50;99.10;101231.16;5012983;28;20475;-46
2022/06/20 00:14:51;;;;;;;16.73;7.63;;;;;;;11.49;99.07;101217.00;5012611;28;20867;-45
2022/06/20 00:17:20;;;;;;;8.60;7.27;;;;;;;11.50;98.97;101223.13;5012351;28;20996;-45
2022/06/20 00:19:48;;;;;;;12.97;7.03;;;;;;;11.50;99.15;101234.66;5013459;28;20437;-46
2022/06/20 00:22:15;;;;;;;9.23;6.83;;;;;;;11.50;99.08;101228.47;5012851;28;20449;-45
2022/06/20 00:24:43;;;;;;;8.60;6.80;;;;;;;11.49;99.22;101219.66;5014785;28;20433;-47
2022/06/20 00:27:12;;;;;;;8.43;5.93;;;;;;;11.50;99.15;101228.47;5032083;28;20439;-46
2022/06/20 00:29:42;;;;;;;11.33;6.40;;;;;;;11.48;99.27;101241.19;5032999;28;20975;-47
2022/06/20 00:32:11;;;;;;;9.93;7.10;;;;;;;11.47;99.32;101245.72;5028117;28;20480;-47
2022/06/20 00:34:39;;;;;;;6.87;6.27;;;;;;;11.47;99.25;101251.06;5023950;28;20436;-45
2022/06/20 00:37:11;;;;;;;7.43;6.50;;;;;;;11.46;99.02;101249.41;5031985;28;20458;-47
2022/06/20 00:39:39;;;;;;;7.33;6.70;;;;;;;11.47;99.08;101248.38;5032850;28;20427;-46
2022/06/20 00:42:10;;;;;;;9.33;7.03;;;;;;;11.48;98.89;101249.22;5032693;28;20444;-48
2022/06/20 00:44:42;;;;;;;7.20;5.90;;;;;;;11.48;98.71;101244.72;5031911;28;20454;-47
2022/06/20 00:47:13;;;;;;;12.53;6.27;;;;;;;11.48;98.96;101244.72;5031798;28;20463;-46
2022/06/20 00:49:46;;;;;;;8.20;6.70;;;;;;;11.48;98.83;101257.22;5032860;28;20435;-45
2022/06/20 00:52:18;;;;;;;6.80;6.07;;;;;;;11.44;99.02;101254.09;5031920;28;20475;-46
2022/06/20 00:54:51;;;;;;;14.53;7.00;;;;;;;11.41;99.33;101249.13;4995351;28;20441;-45
2022/06/20 00:57:22;;;;;;;11.50;6.93;;;;;;;11.40;99.24;101257.34;5012153;28;20434;-45
2022/06/20 00:59:58;;;;;;;7.43;5.93;;;;;;;11.36;99.03;101246.22;5012829;28;20452;-47
2022/06/20 01:02:29;;;;;;;15.60;6.83;;;;;;;11.36;99.17;101243.56;5012140;28;20445;-49
2022/06/20 01:05:00;;;;;;;8.33;6.50;;;;;;;11.37;99.05;101247.06;5012062;28;20432;-48
2022/06/20 01:07:36;;;;;;;9.10;6.43;;;;;;;11.35;98.94;101252.56;5011921;28;20472;-46
2022/06/20 01:10:06;;;;;;;8.73;6.47;;;;;;;11.34;99.17;101250.94;5012721;28;20432;-50
2022/06/20 01:12:45;;;;;;;8.93;6.40;;;;;;;11.34;98.96;101248.25;5012074;28;20485;-45
2022/06/20 01:15:21;;;;;;;7.10;6.03;;;;;;;11.36;98.96;101243.56;5011665;28;20930;-47
2022/06/20 01:17:50;;;;;;;7.93;6.27;;;;;;;11.37;99.09;101247.88;5011862;28;20512;-46
2022/06/20 01:20:25;;;;;;;12.97;7.90;;;;;;;11.38;98.95;101236.16;5012481;28;20429;-47
2022/06/20 01:23:04;;;;;;;9.83;6.77;;;;;;;11.41;98.98;101230.44;5011949;28;20460;-49
2022/06/20 01:25:53;;;;;;;8.83;6.20;;;;;;;11.43;98.56;101239.13;5019971;28;20802;-46
2022/06/20 01:28:26;;;;;;;17.47;7.30;;;;;;;11.45;98.83;101238.91;5031182;28;20471;-47
2022/06/20 01:30:56;;;;;;;8.67;6.50;;;;;;;11.48;98.72;101244.72;5031489;28;20802;-47
2022/06/20 01:33:24;;;;;;;8.30;7.10;;;;;;;11.52;98.41;101253.16;5015698;28;20444;-45
2022/06/20 01:38:40;;;;;;;8.00;5.90;;;;;;;11.56;98.46;101249.91;5031578;28;20451;-45
2022/06/20 01:43:59;;;;;;;6.47;5.97;;;;;;;11.62;98.73;101240.31;5031391;28;20455;-45
2022/06/20 01:46:29;;;;;;;10.87;6.80;;;;;;;11.64;98.69;101239.13;5030537;28;20428;-47
2022/06/20 01:49:00;;;;;;;9.00;6.33;;;;;;;11.66;98.41;101237.06;5031313;28;20464;-48
2022/06/20 01:51:33;;;;;;;12.93;6.77;;;;;;;11.71;98.51;101225.84;5031240;28;20476;-46
2022/06/20 01:54:03;;;;;;;5.63;5.13;;;;;;;11.73;98.50;101217.63;5016704;28;20850;-45
2022/06/20 01:56:31;;;;;;;9.80;6.13;;;;;;;11.74;98.34;101220.09;5011150;28;20433;-46
2022/06/20 01:59:03;;;;;;;6.30;5.70;;;;;;;11.78;98.54;101225.91;5011757;28;20462;-45
2022/06/20 02:01:34;;;;;;;10.20;6.70;;;;;;;11.78;98.91;101231.25;5011819;28;20452;-48
2022/06/20 02:04:05;;;;;;;7.23;6.03;;;;;;;11.81;98.90;101230.84;5011065;28;20433;-48
2022/06/20 02:06:34;;;;;;;10.80;7.13;;;;;;;11.83;98.51;101224.28;5010966;28;20433;-47
2022/06/20 02:09:02;;;;;;;19.33;7.03;;;;;;;11.85;98.63;101210.75;5011213;28;20461;-48
2022/06/20 02:11:34;;;;;;;7.90;6.27;;;;;;;11.87;98.61;101214.06;5011211;28;20480;-45
2022/06/20 02:14:08;;;;;;;9.70;6.03;;;;;;;11.89;98.75;101207.50;5011130;28;20520;-49
2022/06/20 02:16:39;;;;;;;10.67;7.00;;;;;;;11.90;99.04;101208.31;5010752;28;20930;-51
2022/06/20 02:19:09;;;;;;;16.20;6.27;;;;;;;11.89;98.64;101202.13;5011125;28;20465;-46
2022/06/20 02:21:38;;;;;;;8.27;5.83;;;;;;;11.91;98.98;101220.69;5011348;28;20958;-46
2022/06/20 02:24:10;;;;;;;11.43;6.97;;;;;;;11.92;98.96;101198.25;5011206;28;20443;-50
2022/06/20 02:26:40;;;;;;;7.40;6.70;;;;;;;11.91;98.87;101185.94;5010901;28;20433;-49
2022/06/20 02:29:21;;;;;;;6.53;5.93;;;;;;;11.94;98.75;101204.25;5011004;28;20470;-45
2022/06/20 02:31:51;;;;;;;7.60;5.97;;;;;;;11.94;98.66;101210.44;5013390;28;20480;-45
2022/06/20 02:34:19;;;;;;;6.97;6.10;;;;;;;11.97;98.91;101211.88;5022174;28;20432;-47
2022/06/20 02:36:48;;;;;;;20.03;6.97;;;;;;;11.99;98.86;101208.00;5030560;28;20439;-47
2022/06/20 02:39:16;;;;;;;13.80;6.27;;;;;;;12.01;98.88;101205.09;5030620;28;20574;-47
2022/06/20 02:41:46;;;;;;;12.60;7.07;;;;;;;12.06;98.42;101208.03;5034375;28;21017;-46
2022/06/20 02:44:19;;;;;;;12.17;7.70;;;;;;;12.08;98.51;101201.47;5034557;28;20424;-45
2022/06/20 02:46:48;;;;;;;11.10;6.40;;;;;;;12.11;98.60;101203.75;5035001;23;20585;-47
2022/06/20 02:49:19;;;;;;;7.87;6.30;;;;;;;12.13;98.86;101203.56;4995403;28;20831;-46
2022/06/20 02:51:50;;;;;;;7.93;6.37;;;;;;;12.14;98.52;101210.56;4995361;28;20426;-43
2022/06/20 02:54:21;;;;;;;12.43;6.67;;;;;;;12.16;98.60;101213.84;5011810;28;20433;-43
2022/06/20 02:56:51;;;;;;;9.83;6.60;;;;;;;12.18;98.88;101217.97;5014372;28;20449;-45
2022/06/20 02:59:24;;;;;;;13.43;6.50;;;;;;;12.21;98.60;101216.78;5014592;28;20465;-46
2022/06/20 03:02:00;;;;;;;8.43;6.20;;;;;;;12.19;98.95;101214.28;5014942;28;20433;-48
2022/06/20 03:04:30;;;;;;;11.77;6.70;;;;;;;12.23;98.66;101209.38;4996169;28;20459;-45
2022/06/20 03:07:02;;;;;;;11.07;7.33;;;;;;;12.27;98.37;101215.19;4994835;28;20464;-42
2022/06/20 03:09:32;;;;;;;8.60;6.30;;;;;;;12.30;98.57;101204.09;4994999;28;20446;-44
2022/06/20 03:12:02;;;;;;;9.40;6.00;;;;;;;12.33;98.59;101209.88;4995083;28;20564;-51
2022/06/20 03:14:36;;;;;;;10.97;6.17;;;;;;;12.36;98.56;101214.84;4994550;28;20441;-42
2022/06/20 03:17:05;;;;;;;9.17;6.70;;;;;;;12.39;98.45;101206.41;4994111;28;20468;-43
2022/06/20 03:19:36;;;;;;;6.67;6.07;;;;;;;12.42;98.73;101205.19;4995188;28;20470;-44
2022/06/20 03:22:07;;;;;;;12.20;6.97;;;;;;;12.42;98.62;101198.00;4994769;28;20452;-45
2022/06/20 03:24:37;;;;;;;8.87;6.70;;;;;;;12.41;98.86;101190.97;4994237;28;20441;-44
2022/06/20 03:27:07;;;;;;;9.60;6.30;;;;;;;12.38;99.14;101180.69;4993809;28;20460;-42
2022/06/20 03:29:39;;;;;;;12.70;6.80;;;;;;;12.38;98.84;101187.88;4995871;28;20492;-44
2022/06/20 03:32:07;;;;;;;12.40;6.80;;;;;;;12.39;98.75;101186.88;4998386;28;20440;-47
2022/06/20 03:34:35;;;;;;;7.27;6.57;;;;;;;12.42;98.66;101179.28;5006279;28;20451;-45
2022/06/20 03:37:07;;;;;;;17.20;7.13;;;;;;;12.44;98.34;101185.25;5014230;28;21106;-47
2022/06/20 03:39:36;;;;;;;11.67;7.17;;;;;;;12.46;98.35;101177.84;5014876;28;20437;-44
2022/06/20 03:42:05;;;;;;;9.53;5.80;;;;;;;12.49;98.42;101179.28;5014499;28;20437;-42
2022/06/20 03:44:40;;;;;;;15.27;6.20;;;;;;;12.51;98.47;101188.78;5014360;28;20528;-45
2022/06/20 03:47:13;;;;;;;9.27;7.60;;;;;;;12.56;98.11;101191.69;5013248;28;20456;-46
2022/06/20 03:49:46;;;;;;;7.60;5.80;;;;;;;12.60;98.01;101198.28;5014792;28;20479;-43
2022/06/20 03:52:20;;;;;;;11.10;6.00;;;;;;;12.63;98.14;101203.22;5013470;28;20436;-46
2022/06/20 03:54:56;;;;;;;8.90;5.33;;;;;;;12.67;97.92;101214.34;5014701;28;20450;-43
2022/06/20 03:57:28;;;;;;;13.17;6.20;;;;;;;12.72;98.01;101218.09;5013839;28;20968;-43
2022/06/20 04:00:02;;;;;;;13.50;6.13;;;;;;;12.76;97.98;101216.69;5014180;28;20437;-43
2022/06/20 04:02:34;;;;;;;9.07;6.60;;;;;;;12.81;97.87;101205.38;5014234;28;20447;-42
2022/06/20 04:05:09;;;;;;;7.10;5.50;;;;;;;12.88;98.06;101216.94;5014340;28;20437;-45
2022/06/20 04:07:46;;;;;;;8.57;5.33;;;;;;;12.93;97.99;101225.19;5013956;28;20467;-47
2022/06/20 04:13:14;;;;;;;7.80;5.10;;;;;;;13.03;98.33;101211.41;5014181;28;20473;-45
2022/06/20 04:15:48;;;;;;;7.70;5.43;;;;;;;13.10;98.13;101196.25;5014068;28;20819;-43
2022/06/20 04:18:29;;;;;;;6.90;5.30;;;;;;;13.17;98.39;101202.44;5013507;28;20992;-45
2022/06/20 04:21:04;;;;;;;10.57;6.10;;;;;;;13.26;98.40;101209.28;5014011;28;20487;-46
2022/06/20 04:23:37;;;;;;;10.77;6.30;;;;;;;13.38;98.12;101207.63;5014012;28;20468;-43
2022/06/20 04:26:10;;;;;;;8.00;6.13;;;;;;;13.44;98.75;101209.47;5013903;28;20544;-43
2022/06/20 04:28:42;;;;;;;5.63;5.10;;;;;;;13.51;98.65;101210.34;5013350;28;20937;-42
2022/06/20 04:31:18;;;;;;;9.00;5.50;;;;;;;13.58;98.96;101215.69;5011721;28;20433;-45
2022/06/20 04:33:52;;;;;;;13.23;5.60;;;;;;;13.65;99.00;101219.22;5004460;28;20469;-47
2022/06/20 04:36:36;;;;;;;15.33;6.80;;;;;;;13.78;98.59;101214.69;5013678;28;20460;-44
2022/06/20 04:39:12;;;;;;;7.27;5.67;;;;;;;14.01;98.32;101208.09;5013185;28;20535;-43
2022/06/20 04:41:44;;;;;;;8.17;5.60;;;;;;;14.18;98.78;101209.31;5013379;28;20439;-47
2022/06/20 04:44:21;;;;;;;10.20;5.90;;;;;;;14.33;99.38;101216.13;5013597;28;20460;-44
2022/06/20 04:46:57;;;;;;;10.60;6.67;;;;;;;14.51;99.29;101211.94;5013343;28;20479;-47
2022/06/20 04:49:24;;;;;;;11.17;6.10;;;;;;;15.45;95.85;101215.63;5012901;28;20471;-45
2022/06/20 04:51:52;;;;;;;6.13;4.80;;;;;;;15.61;99.48;101209.78;5013088;28;20802;-48
2022/06/20 04:54:22;;;;;;;7.03;5.00;;;;;;;15.68;99.87;101205.16;5013394;28;20473;-48
2022/06/20 04:56:53;;;;;;;8.97;5.77;;;;;;;15.76;99.28;101207.59;5013427;28;20455;-44
2022/06/20 04:59:26;;;;;;;15.50;5.87;;;;;;;15.89;98.34;101214.69;5012414;28;21043;-42
2022/06/20 05:01:58;;;;;;;6.37;5.67;;;;;;;16.97;99.43;101211.28;5013059;28;20429;-43
2022/06/20 05:04:31;;;;;;;7.00;5.43;;;;;;;18.38;98.30;101211.38;5011901;28;20460;-43
2022/06/20 05:07:03;;;;;;;8.73;4.50;;;;;;;20.30;93.14;101194.16;5013089;28;20526;-46
2022/06/20 05:09:37;;;;;;;7.70;5.83;;;;;;;21.63;77.34;101195.41;5012828;28;20437;-47
2022/06/20 05:12:14;;;;;;;5.70;4.73;;;;;;;23.17;76.82;101194.13;5012887;28;20429;-48
2022/06/20 05:14:48;;;;;;;11.37;6.50;;;;;;;22.48;65.03;101189.78;5012712;28;20472;-49
2022/06/20 05:17:22;;;;;;;8.83;7.27;;;;;;;22.13;65.43;101186.06;5012424;28;20454;-46
2022/06/20 05:19:55;;;;;;;7.47;5.83;;;;;;;22.36;67.39;101183.75;5013285;28;20770;-44
2022/06/20 05:22:27;;;;;;;7.07;4.87;;;;;;;24.18;65.69;101181.41;5012700;28;20433;-44
2022/06/20 05:24:58;;;;;;;7.40;5.23;;;;;;;25.51;62.87;101177.78;5012710;28;20428;-44
2022/06/20 05:27:29;;;;;;;6.00;5.20;;;;;;;26.52;60.91;101177.63;5012141;28;20464;-44
2022/06/20 05:30:01;;;;;;;5.30;4.57;;;;;;;26.14;54.71;101178.56;5012952;28;20429;-43
2022/06/20 05:32:39;;;;;;;4.60;4.10;;;;;;;25.59;54.08;101167.09;5008253;28;20440;-49
2022/06/20 05:35:14;;;;;;;6.07;5.00;;;;;;;24.65;49.15;101168.16;4999761;28;20539;-43
2022/06/20 05:37:48;;;;;;;4.70;4.30;;;;;;;25.00;55.10;101169.91;5012050;28;20478;-47
2022/06/20 05:40:24;;;;;;;5.67;5.17;;;;;;;25.20;55.82;101174.44;5012407;28;20954;-46
2022/06/20 05:42:51;;;;;;;8.00;4.93;;;;;;;26.46;48.70;101172.50;5012483;28;20837;-47
2022/06/20 05:45:22;;;;;;;4.33;4.00;;;;;;;26.44;51.88;101163.75;5012265;28;20922;-44
2022/06/20 05:47:54;;;;;;;3.90;3.70;;;;;;;25.48;50.67;101172.84;5012033;28;20495;-45
2022/06/20 05:50:43;;;;;;;6.23;4.77;;;;;;;24.39;52.22;101169.34;5012062;28;20433;-47
2022/06/20 05:53:24;;;;;;;4.70;4.40;;;;;;;23.44;52.40;101171.09;5012286;28;21028;-47
2022/06/20 05:55:55;;;;;;;5.83;5.43;;;;;;;22.50;55.30;101174.03;5012357;28;20449;-44
2022/06/20 05:58:27;;;;;;;6.33;5.70;;;;;;;21.28;55.44;101173.38;5011692;28;21012;-44
2022/06/20 06:00:58;;;;;;;8.53;5.53;;;;;;;20.30;58.26;101180.63;5012517;28;20428;-43
2022/06/20 06:03:33;;;;;;;8.20;4.60;;;;;;;19.37;60.03;101176.88;5012415;28;20433;-43
2022/06/20 06:06:04;;;;;;;4.37;4.07;;;;;;;18.60;62.98;101180.03;5012235;28;20452;-44
2022/06/20 06:08:38;;;;;;;4.93;4.50;;;;;;;18.13;66.13;101178.41;5011683;28;20464;-46
2022/06/20 06:11:22;;;;;;;5.17;4.63;;;;;;;17.67;68.12;101184.59;5012105;28;20436;-47
2022/06/20 06:13:55;;;;;;;5.87;4.30;;;;;;;17.34;70.26;101187.78;5012124;28;20845;-46
2022/06/20 06:16:48;;;;;;;6.70;4.80;;;;;;;17.01;72.21;101180.16;5011790;28;20452;-44
2022/06/20 06:19:24;;;;;;;4.50;3.50;;;;;;;16.69;73.91;101172.50;5011389;28;20507;-45
2022/06/20 06:21:54;;;;;;;4.30;3.90;;;;;;;16.62;76.53;101169.91;5012017;28;20428;-46
2022/06/20 06:24:25;;;;;;;9.37;5.10;;;;;;;16.53;77.80;101173.91;5012175;28;20523;-46
2022/06/20 06:26:57;;;;;;;4.93;4.30;;;;;;;16.44;78.64;101178.78;5011922;28;20460;-46
2022/06/20 06:29:27;;;;;;;4.17;3.87;;;;;;;16.35;78.92;101171.22;5011399;28;20461;-46
2022/06/20 06:31:58;;;;;;;4.63;4.20;;;;;;;16.20;79.38;101170.75;5007264;28;20429;-43
2022/06/20 06:34:37;;;;;;;6.20;4.67;;;;;;;16.10;79.83;101162.38;5003811;28;20830;-43
2022/06/20 06:37:13;;;;;;;5.10;4.70;;;;;;;16.02;80.70;101164.31;5011491;28;20809;-45
2022/06/20 06:39:47;;;;;;;4.57;4.00;;;;;;;16.03;81.68;101165.13;5012243;28;20435;-46
2022/06/20 06:42:20;;;;;;;8.27;4.83;;;;;;;16.07;82.51;101162.84;5011362;28;20937;-46
2022/06/20 06:44:50;;;;;;;4.30;3.93;;;;;;;16.29;83.40;101164.03;5011918;28;20455;-44
2022/06/20 06:47:24;;;;;;;5.23;4.00;;;;;;;16.35;80.41;101174.72;5011202;28;20468;-48
2022/06/20 06:49:58;;;;;;;7.30;3.90;;;;;;;16.52;78.15;101165.00;5011862;28;20435;-45
2022/06/20 06:52:36;;;;;;;6.17;4.73;;;;;;;17.39;81.49;101165.50;5011543;28;20435;-44
2022/06/20 06:55:19;;;;;;;4.03;3.63;;;;;;;18.34;76.87;101158.09;5011790;28;20559;-44
2022/06/20 06:57:53;;;;;;;5.10;4.63;;;;;;;20.46;71.08;101156.44;5011219;28;20479;-45
2022/06/20 07:00:26;;;;;;;6.53;4.60;;;;;;;21.77;58.78;101155.91;5011496;28;20439;-47
2022/06/20 07:02:57;;;;;;;6.13;5.10;;;;;;;23.02;59.84;101148.69;5011555;28;20451;-45
2022/06/20 07:05:34;;;;;;;5.07;4.63;;;;;;;24.13;56.62;101160.41;5011727;28;20428;-44
2022/06/20 07:08:09;;;;;;;5.23;3.80;;;;;;;24.77;54.17;101159.63;5011260;28;20470;-45
2022/06/20 07:10:43;;;;;;;4.13;3.87;;;;;;;23.69;49.81;101160.19;5011413;28;20435;-47
2022/06/20 07:13:19;;;;;;;4.03;3.73;;;;;;;23.67;50.27;101154.19;5011682;28;20445;-48
2022/06/20 07:15:50;;;;;;;3.70;3.50;;;;;;;23.66;46.04;101154.47;5011691;28;20574;-44
2022/06/20 07:18:30;;;;;;;4.23;3.77;;;;;;;23.81;48.63;101154.44;5011079;28;20559;-45
2022/06/20 07:20:58;;;;;;;3.57;3.27;;;;;;;23.72;52.90;101160.72;5011423;28;20435;-48
2022/06/20 07:23:26;;;;;;;4.27;3.97;;;;;;;23.35;53.84;101164.50;5011532;28;20427;-50
2022/06/20 07:25:54;;;;;;;5.60;3.70;;;;;;;22.80;50.81;101161.66;5011238;28;20458;-45
2022/06/20 07:28:34;;;;;;;4.87;4.57;;;;;;;22.52;54.12;101171.84;5013573;28;20806;-47
2022/06/20 07:31:07;;;;;;;3.73;3.50;;;;;;;21.99;52.47;101161.22;5014157;28;20932;-48
2022/06/20 07:33:39;;;;;;;3.90;3.63;;;;;;;23.29;51.99;101159.31;5003891;28;20796;-47
2022/06/20 07:36:11;;;;;;;4.03;3.83;;;;;;;23.71;48.58;101159.09;5014779;28;20487;-48
2022/06/20 07:38:44;;;;;;;4.03;3.67;;;;;;;24.32;47.82;101160.63;5014236;28;20461;-47
2022/06/20 07:41:17;;;;;;;2.80;2.60;;;;;;;25.38;50.07;101171.03;5014698;28;20433;-48
2022/06/20 07:43:53;;;;;;;3.50;3.30;;;;;;;25.18;43.16;101168.41;5014777;28;20432;-46
2022/06/20 07:46:26;;;;;;;3.63;3.10;;;;;;;25.14;40.47;101160.00;5014442;28;20502;-45
2022/06/20 07:48:58;;;;;;;3.20;2.90;;;;;;;25.16;39.89;101157.81;5014078;28;20523;-47
2022/06/20 07:51:33;;;;;;;3.03;2.80;;;;;;;25.83;41.45;101165.22;5014581;28;20429;-46
2022/06/20 07:54:07;;;;;;;3.77;3.57;;;;;;;25.36;44.43;101166.97;5014598;28;20821;-44
2022/06/20 07:56:39;;;;;;;3.40;3.20;;;;;;;23.71;44.09;101156.38;5014324;28;20488;-47
2022/06/20 07:59:11;;;;;;;3.60;3.40;;;;;;;22.88;46.57;101163.88;5014045;28;20464;-45
2022/06/20 08:01:45;;;;;;;3.50;3.30;;;;;;;22.06;46.05;101167.25;5014367;28;20443;-49
2022/06/20 08:04:18;;;;;;;4.50;4.10;;;;;;;20.94;50.84;101167.28;5014338;28;20435;-47
2022/06/20 08:06:52;;;;;;;6.30;4.27;;;;;;;19.55;54.71;101174.81;5014154;28;20449;-47
2022/06/20 08:09:25;;;;;;;5.87;3.67;;;;;;;18.58;58.56;101186.69;5013714;28;20468;-45
2022/06/20 08:11:58;;;;;;;4.27;3.90;;;;;;;18.28;59.80;101173.34;5013761;28;20911;-44
2022/06/20 08:14:32;;;;;;;4.23;3.93;;;;;;;18.11;60.56;101167.84;5014227;28;20439;-44
2022/06/20 08:17:02;;;;;;;4.63;4.13;;;;;;;17.90;62.61;101179.22;5014120;28;20456;-47
2022/06/20 08:19:31;;;;;;;6.47;4.70;;;;;;;17.54;63.10;101191.03;5013651;28;20448;-45
2022/06/20 08:22:08;;;;;;;8.20;4.90;;;;;;;17.46;63.85;101187.81;5013665;28;20429;-45
2022/06/20 08:24:43;;;;;;;4.63;4.20;;;;;;;17.43;64.99;101185.56;5014030;28;20455;-45
2022/06/20 08:27:14;;;;;;;7.47;4.33;;;;;;;17.33;66.35;101188.00;5013310;28;20448;-44
2022/06/20 08:29:48;;;;;;;5.40;5.07;;;;;;;17.31;67.32;101179.31;5013845;28;20440;-46
2022/06/20 08:32:24;;;;;;;4.60;4.20;;;;;;;17.28;68.03;101182.47;5009155;28;20425;-45
2022/06/20 08:34:56;;;;;;;5.00;4.40;;;;;;;17.32;68.65;101183.69;5005321;28;20436;-44
2022/06/20 08:37:33;;;;;;;4.50;4.20;;;;;;;17.34;68.89;101182.38;5013302;28;20471;-46
2022/06/20 08:40:11;;;;;;;4.70;4.30;;;;;;;17.53;70.05;101183.94;5013394;28;20421;-48
2022/06/20 08:43:07;;;;;;;5.33;4.93;;;;;;;18.27;71.96;101179.00;5013609;28;20440;-48
2022/06/20 08:46:11;;;;;;;5.37;5.00;;;;;;;18.94;64.71;101172.03;5013120;28;20468;-46
2022/06/20 08:49:17;;;;;;;5.20;4.70;;;;;;;18.89;65.63;101161.13;5012995;28;20465;-48
2022/06/20 08:52:13;;;;;;;4.90;4.70;;;;;;;19.01;66.49;101153.78;5011324;28;20436;-47
2022/06/20 08:55:11;;;;;;;5.30;4.90;;;;;;;19.27;63.41;101154.00;5013354;28;20527;-49
2022/06/20 08:57:50;;;;;;;7.50;5.33;;;;;;;19.74;63.79;101159.16;4970581;28;20464;-48
2022/06/20 09:00:43;;;;;;;5.73;5.13;;;;;;;19.82;63.22;101156.03;5036833;23;20488;-47
2022/06/20 09:03:46;;;;;;;5.70;4.50;;;;;;;19.72;61.76;101166.69;5025043;28;20427;-47
2022/06/20 09:06:29;;;;;;;10.17;6.00;;;;;;;19.82;58.71;101156.88;5007940;28;20435;-49
2022/06/20 09:09:19;;;;;;;5.90;5.37;;;;;;;19.57;62.84;101159.16;5032324;28;20551;-46
2022/06/20 09:12:26;;;;;;;5.90;5.40;;;;;;;18.64;64.68;101161.44;5032502;28;21154;-47
2022/06/20 09:15:14;;;;;;;6.07;5.50;;;;;;;18.40;67.50;101157.16;5032841;28;20428;-46
2022/06/20 09:17:53;;;;;;;7.47;6.97;;;;;;;18.56;65.35;101167.22;5032152;28;21007;-49
2022/06/20 09:20:30;;;;;;;6.47;5.90;;;;;;;18.68;66.78;101160.75;5032350;28;20428;-48
2022/06/20 09:23:12;;;;;;;5.80;5.40;;;;;;;19.50;61.96;101152.28;5032536;28;20522;-47
2022/06/20 09:25:54;;;;;;;6.63;5.50;;;;;;;19.26;60.39;101146.16;5032676;28;20430;-49
2022/06/20 09:28:54;;;;;;;6.70;5.77;;;;;;;19.48;59.39;101148.97;5032285;28;20471;-47
2022/06/20 09:31:58;;;;;;;6.17;5.50;;;;;;;19.47;56.57;101150.06;5028431;28;21010;-47
2022/06/20 09:34:59;;;;;;;5.70;5.40;;;;;;;19.28;61.18;101147.56;5032471;28;20530;-49
2022/06/20 09:37:55;;;;;;;5.07;4.80;;;;;;;19.35;56.62;101147.41;5031749;28;20463;-46
2022/06/20 09:40:31;;;;;;;5.73;4.63;;;;;;;19.40;58.15;101147.50;5032180;28;20432;-48
2022/06/20 09:43:05;;;;;;;5.67;5.17;;;;;;;19.35;61.40;101153.59;5032213;28;20435;-45
2022/06/20 09:45:45;;;;;;;6.63;6.07;;;;;;;19.21;61.51;101152.28;5032104;28;20430;-47
2022/06/20 09:48:21;;;;;;;6.10;5.50;;;;;;;19.83;62.37;101154.97;5031855;28;20456;-47
2022/06/20 09:50:58;;;;;;;8.80;5.73;;;;;;;20.04;58.66;101161.50;5031285;28;20451;-46
2022/06/20 09:53:41;;;;;;;6.53;5.93;;;;;;;20.06;60.84;101154.78;5031956;28;20435;-47
2022/06/20 09:56:17;;;;;;;8.57;5.50;;;;;;;20.41;56.82;101149.88;5032121;28;20481;-46
2022/06/20 09:58:54;;;;;;;6.03;5.60;;;;;;;19.66;55.06;101154.16;5031464;28;20471;-47
2022/06/20 10:01:31;;;;;;;5.50;5.20;;;;;;;19.81;55.98;101160.63;5031640;28;20466;-49
2022/06/20 10:04:16;;;;;;;5.73;4.83;;;;;;;20.29;55.50;101151.06;5031994;28;20439;-45
2022/06/20 10:06:56;;;;;;;6.93;4.60;;;;;;;20.53;53.77;101154.34;5032040;28;20939;-44
2022/06/20 10:09:33;;;;;;;4.43;4.20;;;;;;;19.44;52.45;101153.25;5031269;28;20451;-47
2022/06/20 10:12:08;;;;;;;4.47;4.07;;;;;;;18.31;54.46;101161.28;5031500;28;20538;-49
2022/06/20 10:14:47;;;;;;;4.43;4.00;;;;;;;18.36;54.90;101151.41;5031748;28;20427;-47
2022/06/20 10:17:22;;;;;;;4.33;4.03;;;;;;;18.42;56.69;101147.75;5031366;28;20485;-51
2022/06/20 10:20:02;;;;;;;4.10;3.90;;;;;;;18.67;57.35;101160.97;5031594;28;20928;-45
2022/06/20 10:22:37;;;;;;;4.37;4.07;;;;;;;18.66;57.15;101167.44;5031480;28;20481;-46
2022/06/20 10:25:30;;;;;;;3.90;3.67;;;;;;;18.19;59.19;101164.78;5031542;28;20439;-48
2022/06/20 10:28:15;;;;;;;5.80;4.80;;;;;;;17.38;64.14;101178.16;5031281;28;20573;-46
2022/06/20 10:30:48;;;;;;;5.67;4.93;;;;;;;16.99;64.92;101176.84;5031428;28;20448;-47
2022/06/20 10:33:33;;;;;;;6.50;5.30;;;;;;;16.94;69.20;101173.22;5031621;28;20435;-48
2022/06/20 10:36:17;;;;;;;5.03;4.70;;;;;;;17.04;71.87;101181.56;5031353;28;20984;-48
2022/06/20 10:39:06;;;;;;;6.23;4.60;;;;;;;17.26;71.58;101181.91;5031225;28;20459;-46
2022/06/20 10:41:47;;;;;;;6.20;5.70;;;;;;;17.55;71.77;101181.88;5031302;28;20443;-46
2022/06/20 10:44:23;;;;;;;5.97;5.57;;;;;;;18.36;70.36;101172.16;5031823;28;20487;-51
2022/06/20 10:47:04;;;;;;;4.70;4.37;;;;;;;18.65;63.52;101163.91;5031608;28;20452;-46
2022/06/20 10:49:58;;;;;;;5.97;4.50;;;;;;;19.06;66.19;101172.81;5031187;28;20501;-47
2022/06/20 10:52:42;;;;;;;5.00;4.60;;;;;;;19.56;62.53;101175.66;5031042;28;20482;-45
2022/06/20 10:55:24;;;;;;;5.17;4.67;;;;;;;19.68;61.20;101173.69;5031566;28;20431;-46
2022/06/20 10:58:00;;;;;;;5.07;4.77;;;;;;;19.78;61.40;101173.81;5030953;28;20468;-46
2022/06/20 11:00:34;;;;;;;5.60;4.40;;;;;;;19.76;61.21;101165.97;5030966;28;20427;-48
2022/06/20 11:03:28;;;;;;;4.97;4.20;;;;;;;19.44;58.27;101169.47;5035423;28;20428;-49
2022/06/20 11:06:07;;;;;;;6.47;4.67;;;;;;;19.26;59.21;101163.19;5035261;28;20793;-46
2022/06/20 11:08:44;;;;;;;5.30;4.60;;;;;;;18.89;59.16;101167.34;5034744;28;20467;-48
2022/06/20 11:11:24;;;;;;;6.43;4.47;;;;;;;18.92;59.11;101166.06;5035056;28;20467;-48
2022/06/20 11:13:59;;;;;;;4.20;3.90;;;;;;;19.02;59.42;101172.50;5035135;28;20435;-47
2022/06/20 11:16:36;;;;;;;4.60;4.07;;;;;;;19.15;59.91;101176.75;5035051;28;20478;-45
2022/06/20 11:19:19;;;;;;;3.90;3.53;;;;;;;19.28;59.29;101174.59;5034498;28;20654;-48
2022/06/20 11:21:59;;;;;;;4.07;3.77;;;;;;;19.47;58.97;101180.63;5034810;28;20449;-47
2022/06/20 11:24:41;;;;;;;4.13;3.60;;;;;;;19.86;56.98;101174.22;5034845;28;20432;-48
2022/06/20 11:27:26;;;;;;;4.87;3.80;;;;;;;20.62;54.91;101171.78;5034374;28;20427;-47
2022/06/20 11:30:06;;;;;;;4.33;4.03;;;;;;;20.53;51.89;101168.72;5034534;28;20434;-49
2022/06/20 11:32:43;;;;;;;4.90;4.50;;;;;;;20.89;53.64;101164.53;5034397;28;20542;-48
2022/06/20 11:35:25;;;;;;;4.20;3.90;;;;;;;20.45;53.19;101166.44;5034692;28;20437;-47
2022/06/20 11:38:06;;;;;;;6.40;4.23;;;;;;;20.16;52.91;101173.84;5034116;28;20547;-49
2022/06/20 11:40:42;;;;;;;4.37;4.07;;;;;;;19.38;55.12;101159.59;5034513;28;20444;-49
2022/06/20 11:43:44;;;;;;;4.70;4.17;;;;;;;19.57;53.26;101166.44;5034543;28;20439;-48
2022/06/20 11:46:30;;;;;;;4.63;4.00;;;;;;;20.22;54.82;101156.63;5034414;28;20438;-47
2022/06/20 11:49:13;;;;;;;5.93;4.07;;;;;;;21.18;52.55;101155.09;5033872;28;20466;-46
2022/06/20 11:51:54;;;;;;;4.83;4.57;;;;;;;21.88;54.00;101151.38;5034090;28;20447;-47
2022/06/20 11:54:34;;;;;;;4.80;4.40;;;;;;;22.61;51.06;101151.22;5034291;28;20435;-49
2022/06/20 11:57:13;;;;;;;4.27;3.93;;;;;;;23.00;48.98;101153.53;5034292;28;20883;-46
2022/06/20 11:59:50;;;;;;;4.63;4.23;;;;;;;23.31;50.52;101151.69;5034117;28;20439;-49
2022/06/20 12:02:38;;;;;;;4.17;3.87;;;;;;;23.05;47.85;101146.25;5033786;28;20491;-47
2022/06/20 12:05:27;;;;;;;5.33;4.80;;;;;;;22.43;44.13;101159.06;5033833;28;20431;-47
2022/06/20 12:08:01;;;;;;;3.83;3.53;;;;;;;19.69;49.99;101199.66;5033686;28;20463;-45
2022/06/20 12:10:38;;;;;;;5.50;5.20;;;;;;;17.99;56.27;101175.13;5033884;28;20428;-50
2022/06/20 12:13:18;;;;;;;8.27;7.87;;;;;;;16.46;61.39;101214.34;5033320;28;20436;-48